createdAt,value
2019-03-31T00:00:36.479Z,7.30
2019-03-31T00:03:06.518Z,7.20
2019-03-31T00:05:37.465Z,7.00
2019-03-31T00:08:07.911Z,6.90
2019-03-31T00:10:37.896Z,6.80
2019-03-31T00:13:07.910Z,6.70
2019-03-31T00:15:37.980Z,6.60
2019-03-31T00:18:07.972Z,6.50
2019-03-31T00:20:41.007Z,6.50
2019-03-31T00:23:11.226Z,6.40
2019-03-31T00:25:49.218Z,6.30
2019-03-31T00:28:19.588Z,6.20
2019-03-31T00:30:49.816Z,6.10
2019-03-31T00:33:19.800Z,6.00
2019-03-31T00:35:49.860Z,5.90
2019-03-31T00:38:19.855Z,5.90
2019-03-31T00:40:50.108Z,5.70
2019-03-31T00:43:24.176Z,5.70
2019-03-31T00:45:54.163Z,5.70
2019-03-31T00:48:24.176Z,5.70
2019-03-31T00:50:54.234Z,5.50
2019-03-31T00:53:24.218Z,5.50
2019-03-31T00:55:54.195Z,5.50
2019-03-31T00:58:26.757Z,5.40
2019-03-31T01:01:16.987Z,5.40
2019-03-31T01:03:47.348Z,5.30
2019-03-31T01:06:19.430Z,5.30
2019-03-31T01:08:49.704Z,5.20
2019-03-31T01:11:25.354Z,5.20
2019-03-31T01:13:55.974Z,5.20
2019-03-31T01:16:27.203Z,5.20
2019-03-31T01:18:57.205Z,5.20
2019-03-31T01:21:27.257Z,5.20
2019-03-31T01:23:57.283Z,5.10
2019-03-31T01:26:27.380Z,5.10
2019-03-31T01:28:57.661Z,5.10
2019-03-31T01:31:29.335Z,5.00
2019-03-31T01:33:59.339Z,5.00
2019-03-31T01:36:29.399Z,5.00
2019-03-31T01:38:59.422Z,5.00
2019-03-31T01:41:29.983Z,4.90
2019-03-31T01:43:59.967Z,4.90
2019-03-31T01:46:30.465Z,4.90
2019-03-31T01:49:00.488Z,4.80
2019-03-31T01:51:30.483Z,4.80
2019-03-31T01:54:00.457Z,4.80
2019-03-31T01:56:30.468Z,4.80
2019-03-31T01:59:00.452Z,4.80
2019-03-31T02:01:30.552Z,4.70
2019-03-31T02:04:00.590Z,4.70
2019-03-31T02:06:30.592Z,4.70
2019-03-31T02:09:00.584Z,4.70
2019-03-31T02:11:30.609Z,4.70
2019-03-31T02:14:00.602Z,4.60
2019-03-31T02:16:30.620Z,4.70
2019-03-31T02:19:00.760Z,4.60
2019-03-31T02:21:30.768Z,4.60
2019-03-31T02:24:00.783Z,4.70
2019-03-31T02:26:30.826Z,4.70
2019-03-31T02:29:01.107Z,4.70
2019-03-31T02:31:31.135Z,4.70
2019-03-31T02:34:01.195Z,4.70
2019-03-31T02:36:31.198Z,4.80
2019-03-31T02:39:01.280Z,4.70
2019-03-31T02:41:31.523Z,4.80
2019-03-31T02:44:01.468Z,4.80
2019-03-31T02:46:31.468Z,4.70
2019-03-31T02:49:01.497Z,4.80
2019-03-31T02:51:31.973Z,4.80
2019-03-31T02:54:01.949Z,4.80
2019-03-31T02:56:32.780Z,4.90
2019-03-31T02:59:03.971Z,4.90
2019-03-31T03:01:34.981Z,5.00
2019-03-31T03:04:07.958Z,4.90
2019-03-31T03:06:38.815Z,5.00
2019-03-31T03:09:08.894Z,5.00
2019-03-31T03:11:41.767Z,5.00
2019-03-31T03:14:13.182Z,5.00
2019-03-31T03:16:43.177Z,5.00
2019-03-31T03:19:13.205Z,4.90
2019-03-31T03:21:43.240Z,4.90
2019-03-31T03:24:13.197Z,4.90
2019-03-31T03:26:43.187Z,4.90
2019-03-31T03:29:13.267Z,4.90
2019-03-31T03:31:43.282Z,5.00
2019-03-31T03:34:13.269Z,5.00
2019-03-31T03:36:43.781Z,5.00
2019-03-31T03:39:14.139Z,5.00
2019-03-31T03:41:44.205Z,5.00
2019-03-31T03:44:14.401Z,5.00
2019-03-31T03:46:44.532Z,5.00
2019-03-31T03:49:14.756Z,4.90
2019-03-31T03:51:44.949Z,4.90
2019-03-31T03:54:16.740Z,4.90
2019-03-31T03:56:46.720Z,4.80
2019-03-31T03:59:16.770Z,4.80
2019-03-31T04:01:46.766Z,4.80
2019-03-31T04:04:16.811Z,4.70
2019-03-31T04:06:46.941Z,4.70
2019-03-31T04:09:16.955Z,4.70
2019-03-31T04:11:46.949Z,4.70
2019-03-31T04:14:16.975Z,4.70
2019-03-31T04:16:47.000Z,4.70
2019-03-31T04:19:16.987Z,4.70
2019-03-31T04:21:47.060Z,4.70
2019-03-31T04:24:17.076Z,4.60
2019-03-31T04:26:47.063Z,4.70
2019-03-31T04:29:17.135Z,4.60
2019-03-31T04:31:47.221Z,4.60
2019-03-31T04:34:18.133Z,4.60
2019-03-31T04:36:48.174Z,4.70
2019-03-31T04:39:18.178Z,4.70
2019-03-31T04:41:48.181Z,4.70
2019-03-31T04:44:18.315Z,4.70
2019-03-31T04:46:48.336Z,4.60
2019-03-31T04:49:18.341Z,4.60
2019-03-31T04:51:48.406Z,4.60
2019-03-31T04:54:18.408Z,4.60
2019-03-31T04:56:48.434Z,4.50
2019-03-31T04:59:18.431Z,4.50
2019-03-31T05:01:48.419Z,4.60
2019-03-31T05:04:18.415Z,4.50
2019-03-31T05:06:48.529Z,4.50
2019-03-31T05:09:18.511Z,4.50
2019-03-31T05:11:48.540Z,4.50
2019-03-31T05:14:18.735Z,4.50
2019-03-31T05:16:48.812Z,4.50
2019-03-31T05:19:18.951Z,4.50
2019-03-31T05:21:48.971Z,4.60
2019-03-31T05:24:18.981Z,4.60
2019-03-31T05:26:49.043Z,4.60
2019-03-31T05:29:19.115Z,4.70
2019-03-31T05:31:49.132Z,4.80
2019-03-31T05:34:19.729Z,4.90
2019-03-31T05:36:49.779Z,4.90
2019-03-31T05:39:19.847Z,4.90
2019-03-31T05:41:49.839Z,5.00
2019-03-31T05:44:19.916Z,5.00
2019-03-31T05:46:49.923Z,5.00
2019-03-31T05:49:19.992Z,5.10
2019-03-31T05:51:50.047Z,5.10
2019-03-31T05:54:20.130Z,5.20
2019-03-31T05:56:50.500Z,5.30
2019-03-31T05:59:20.547Z,5.30
2019-03-31T06:01:50.721Z,5.30
2019-03-31T06:04:32.604Z,5.40
2019-03-31T06:06:55.569Z,5.40
2019-03-31T06:09:25.550Z,5.40
2019-03-31T06:11:55.568Z,5.40
2019-03-31T06:14:25.644Z,5.40
2019-03-31T06:16:55.625Z,5.50
2019-03-31T06:19:25.619Z,5.50
2019-03-31T06:21:55.734Z,5.50
2019-03-31T06:24:25.701Z,5.50
2019-03-31T06:26:55.759Z,5.50
2019-03-31T06:29:25.819Z,5.50
2019-03-31T06:31:57.855Z,5.60
2019-03-31T06:34:27.868Z,5.60
2019-03-31T06:36:58.199Z,5.70
2019-03-31T06:39:28.150Z,5.70
2019-03-31T06:41:58.139Z,5.80
2019-03-31T06:44:28.311Z,5.80
2019-03-31T06:46:58.318Z,5.80
2019-03-31T06:49:28.330Z,5.80
2019-03-31T06:51:58.403Z,5.80
2019-03-31T06:54:28.425Z,5.80
2019-03-31T06:56:58.790Z,5.90
2019-03-31T06:59:28.831Z,6.00
2019-03-31T07:01:58.916Z,6.00
2019-03-31T07:04:28.926Z,6.00
2019-03-31T07:06:58.920Z,6.00
2019-03-31T07:09:28.952Z,6.00
2019-03-31T07:11:58.930Z,6.00
2019-03-31T07:14:28.996Z,6.00
2019-03-31T07:16:58.985Z,6.00
2019-03-31T07:19:28.985Z,6.00
2019-03-31T07:21:59.076Z,5.90
2019-03-31T07:24:29.107Z,5.80
2019-03-31T07:26:59.316Z,5.80
2019-03-31T07:29:29.426Z,5.80
2019-03-31T07:31:59.441Z,5.70
2019-03-31T07:34:29.460Z,5.70
2019-03-31T07:36:59.717Z,5.80
2019-03-31T07:39:29.715Z,6.00
2019-03-31T07:42:00.038Z,6.00
2019-03-31T07:44:30.350Z,6.10
2019-03-31T07:47:00.525Z,6.10
2019-03-31T07:49:30.600Z,6.10
2019-03-31T07:52:00.744Z,6.10
2019-03-31T07:54:30.757Z,6.00
2019-03-31T07:57:00.768Z,6.10
2019-03-31T07:59:30.853Z,6.00
2019-03-31T08:02:00.850Z,5.90
2019-03-31T08:04:30.848Z,5.90
2019-03-31T08:07:00.843Z,5.80
2019-03-31T08:09:32.269Z,5.80
2019-03-31T08:12:02.272Z,5.90
2019-03-31T08:14:32.341Z,6.00
2019-03-31T08:17:02.380Z,6.20
2019-03-31T08:19:32.394Z,6.30
2019-03-31T08:22:02.575Z,6.30
2019-03-31T08:24:43.109Z,6.30
2019-03-31T08:27:14.708Z,6.30
2019-03-31T08:29:44.851Z,6.40
2019-03-31T08:32:15.451Z,6.50
2019-03-31T08:34:45.546Z,6.50
2019-03-31T08:37:15.523Z,6.50
2019-03-31T08:39:45.921Z,6.60
2019-03-31T08:42:15.951Z,6.60
2019-03-31T08:44:45.932Z,6.70
2019-03-31T08:47:15.938Z,6.70
2019-03-31T08:49:45.958Z,6.80
2019-03-31T08:52:15.979Z,6.90
2019-03-31T08:54:46.141Z,6.90
2019-03-31T08:57:16.186Z,7.00
2019-03-31T08:59:46.200Z,7.00
2019-03-31T09:02:41.001Z,7.00
2019-03-31T09:05:11.781Z,7.10
2019-03-31T09:07:42.720Z,7.20
2019-03-31T09:10:13.257Z,7.20
2019-03-31T09:12:48.279Z,7.10
2019-03-31T09:15:16.881Z,7.10
2019-03-31T09:17:46.875Z,7.20
2019-03-31T09:20:17.273Z,7.20
2019-03-31T09:22:47.306Z,7.20
2019-03-31T09:25:17.307Z,7.30
2019-03-31T09:27:47.279Z,7.30
2019-03-31T09:30:17.316Z,7.40
2019-03-31T09:32:47.307Z,7.30
2019-03-31T09:35:17.319Z,7.40
2019-03-31T09:37:49.639Z,7.50
2019-03-31T09:40:19.803Z,7.50
2019-03-31T09:42:49.815Z,7.60
2019-03-31T09:45:21.490Z,7.60
2019-03-31T09:47:51.486Z,7.50
2019-03-31T09:50:21.911Z,7.60
2019-03-31T09:52:52.831Z,7.70
2019-03-31T09:55:23.176Z,7.70
2019-03-31T09:57:53.520Z,7.70
2019-03-31T10:00:43.013Z,7.80
2019-03-31T10:03:13.018Z,7.80
2019-03-31T10:05:43.003Z,7.80
2019-03-31T10:08:13.055Z,7.80
2019-03-31T10:10:43.051Z,7.80
2019-03-31T10:13:13.051Z,7.90
2019-03-31T10:15:43.051Z,7.90
2019-03-31T10:18:13.048Z,8.00
2019-03-31T10:20:43.048Z,8.10
2019-03-31T10:23:13.100Z,8.20
2019-03-31T10:25:43.081Z,8.00
2019-03-31T10:28:13.061Z,8.00
2019-03-31T10:30:43.072Z,8.00
2019-03-31T10:33:13.082Z,8.00
2019-03-31T10:35:43.058Z,8.10
2019-03-31T10:38:13.104Z,8.30
2019-03-31T10:40:43.142Z,8.30
2019-03-31T10:43:13.139Z,8.40
2019-03-31T10:45:43.207Z,8.40
2019-03-31T10:48:20.368Z,8.60
2019-03-31T10:50:44.797Z,8.60
2019-03-31T10:53:14.841Z,8.60
2019-03-31T10:55:44.824Z,8.70
2019-03-31T10:58:14.837Z,8.70
2019-03-31T11:00:45.000Z,8.60
2019-03-31T11:03:14.992Z,8.50
2019-03-31T11:05:45.046Z,8.60
2019-03-31T11:08:15.040Z,8.60
2019-03-31T11:10:45.083Z,8.60
2019-03-31T11:13:15.067Z,8.70
2019-03-31T11:15:45.115Z,8.80
2019-03-31T11:18:15.111Z,8.70
2019-03-31T11:20:45.076Z,8.70
2019-03-31T11:23:23.208Z,8.80
2019-03-31T11:25:53.243Z,8.90
2019-03-31T11:28:23.279Z,9.00
2019-03-31T11:30:53.370Z,9.00
2019-03-31T11:33:23.345Z,9.00
2019-03-31T11:35:54.287Z,9.00
2019-03-31T11:38:24.706Z,9.00
2019-03-31T11:40:54.888Z,9.00
2019-03-31T11:43:25.441Z,9.00
2019-03-31T11:45:55.812Z,8.80
2019-03-31T11:48:26.255Z,8.80
2019-03-31T11:51:00.273Z,8.70
2019-03-31T11:53:28.877Z,8.60
2019-03-31T11:55:58.851Z,8.70
2019-03-31T11:58:32.113Z,8.60
2019-03-31T12:01:00.657Z,8.70
2019-03-31T12:03:31.454Z,8.60
2019-03-31T12:06:03.752Z,8.60
2019-03-31T12:08:34.348Z,8.70
2019-03-31T12:11:05.040Z,8.90
2019-03-31T12:13:35.215Z,9.00
2019-03-31T12:16:05.997Z,8.90
2019-03-31T12:18:36.776Z,8.80
2019-03-31T12:21:07.036Z,8.80
2019-03-31T12:23:37.139Z,8.70
2019-03-31T12:26:07.273Z,8.80
2019-03-31T12:28:39.929Z,8.80
2019-03-31T12:31:13.373Z,8.80
2019-03-31T12:33:43.749Z,8.70
2019-03-31T12:36:14.267Z,8.80
2019-03-31T12:38:49.571Z,8.90
2019-03-31T12:41:19.701Z,9.00
2019-03-31T12:43:50.244Z,8.90
2019-03-31T12:46:20.893Z,8.90
2019-03-31T12:48:52.727Z,9.00
2019-03-31T12:51:22.916Z,9.10
2019-03-31T12:53:54.830Z,9.00
2019-03-31T12:56:25.186Z,9.10
2019-03-31T12:58:55.937Z,9.20
2019-03-31T13:01:27.517Z,9.20
2019-03-31T13:04:01.080Z,9.20
2019-03-31T13:06:31.055Z,9.20
2019-03-31T13:09:01.028Z,9.20
2019-03-31T13:11:31.027Z,9.10
2019-03-31T13:14:01.223Z,8.90
2019-03-31T13:16:31.247Z,8.90
2019-03-31T13:19:01.255Z,8.90
2019-03-31T13:21:31.329Z,8.90
2019-03-31T13:24:01.360Z,8.70
2019-03-31T13:26:31.348Z,8.50
2019-03-31T13:29:01.375Z,8.50
2019-03-31T13:31:31.419Z,8.50
2019-03-31T13:34:02.059Z,8.50
2019-03-31T13:36:32.093Z,8.50
2019-03-31T13:39:02.102Z,8.40
2019-03-31T13:41:32.096Z,8.40
2019-03-31T13:44:06.722Z,8.30
2019-03-31T13:46:36.952Z,8.20
2019-03-31T13:49:07.510Z,8.10
2019-03-31T13:51:38.183Z,8.00
2019-03-31T13:54:08.840Z,8.00
2019-03-31T13:56:41.245Z,7.90
2019-03-31T13:59:11.740Z,7.90
2019-03-31T14:01:41.764Z,8.00
2019-03-31T14:04:11.767Z,8.10
2019-03-31T14:06:41.847Z,8.10
2019-03-31T14:09:11.839Z,8.00
2019-03-31T14:11:41.828Z,7.90
2019-03-31T14:14:11.843Z,7.80
2019-03-31T14:16:41.819Z,7.60
2019-03-31T14:19:13.163Z,7.60
2019-03-31T14:21:43.441Z,7.60
2019-03-31T14:24:13.421Z,7.50
2019-03-31T14:26:43.461Z,7.40
2019-03-31T14:29:13.801Z,7.40
2019-03-31T14:31:43.819Z,7.50
2019-03-31T14:34:13.869Z,7.50
2019-03-31T14:36:44.140Z,7.50
2019-03-31T14:39:17.034Z,7.50
2019-03-31T14:41:46.743Z,7.50
2019-03-31T14:44:16.839Z,7.50
2019-03-31T14:46:48.416Z,7.60
2019-03-31T14:49:18.589Z,7.70
2019-03-31T14:51:49.115Z,7.70
2019-03-31T14:54:21.120Z,7.70
2019-03-31T14:56:51.103Z,7.70
2019-03-31T14:59:21.123Z,7.60
2019-03-31T15:01:51.127Z,7.50
2019-03-31T15:04:21.141Z,7.40
2019-03-31T15:06:51.334Z,7.30
2019-03-31T15:09:21.294Z,7.20
2019-03-31T15:11:51.304Z,7.20
2019-03-31T15:14:21.517Z,7.10
2019-03-31T15:16:51.499Z,7.00
2019-03-31T15:19:21.483Z,7.00
2019-03-31T15:21:51.502Z,7.00
2019-03-31T15:24:21.519Z,7.00
2019-03-31T15:26:51.934Z,6.90
2019-03-31T15:29:21.967Z,6.90
2019-03-31T15:31:51.967Z,7.00
2019-03-31T15:34:21.985Z,7.00
2019-03-31T15:36:52.053Z,6.90
2019-03-31T15:39:22.056Z,6.90
2019-03-31T15:41:52.199Z,6.80
2019-03-31T15:44:22.223Z,6.90
2019-03-31T15:46:52.278Z,6.90
2019-03-31T15:49:22.616Z,6.80
2019-03-31T15:51:52.669Z,6.70
2019-03-31T15:54:22.651Z,6.70
2019-03-31T15:56:52.751Z,6.60
2019-03-31T15:59:23.008Z,6.50
2019-03-31T16:01:53.039Z,6.40
2019-03-31T16:04:23.519Z,6.30
2019-03-31T16:06:53.619Z,6.20
2019-03-31T16:09:24.119Z,6.10
2019-03-31T16:11:54.266Z,6.10
2019-03-31T16:14:24.204Z,6.00
2019-03-31T16:16:53.732Z,6.00
2019-03-31T16:19:23.224Z,5.90
2019-03-31T16:21:52.844Z,5.90
2019-03-31T16:24:35.733Z,5.80
2019-03-31T16:27:05.248Z,5.80
2019-03-31T16:29:34.802Z,5.70
2019-03-31T16:32:04.276Z,5.70
2019-03-31T16:34:34.377Z,5.60
2019-03-31T16:37:03.947Z,5.60
2019-03-31T16:39:38.026Z,5.50
2019-03-31T16:42:04.707Z,5.40
2019-03-31T16:44:34.297Z,5.40
2019-03-31T16:47:03.779Z,5.30
2019-03-31T16:49:33.332Z,5.30
2019-03-31T16:52:02.836Z,5.30
2019-03-31T16:54:32.324Z,5.20
2019-03-31T16:57:01.895Z,5.20
2019-03-31T16:59:31.656Z,5.10
2019-03-31T17:02:01.368Z,5.10
2019-03-31T17:04:31.397Z,5.00
2019-03-31T17:07:00.960Z,5.00
2019-03-31T17:09:30.444Z,4.90
2019-03-31T17:12:00.114Z,4.90
2019-03-31T17:14:29.597Z,4.80
2019-03-31T17:17:00.109Z,4.70
2019-03-31T17:19:29.694Z,4.70
2019-03-31T17:22:02.249Z,4.60
2019-03-31T17:24:31.882Z,4.60
2019-03-31T17:27:01.984Z,4.50
2019-03-31T17:29:31.486Z,4.40
2019-03-31T17:32:01.007Z,4.30
2019-03-31T17:34:30.512Z,4.30
2019-03-31T17:37:00.240Z,4.20
2019-03-31T17:39:29.701Z,4.10
2019-03-31T17:41:59.271Z,4.10
2019-03-31T17:44:32.066Z,4.00
2019-03-31T17:47:01.651Z,4.00
2019-03-31T17:49:31.107Z,3.90
2019-03-31T17:52:01.383Z,3.80
2019-03-31T17:54:31.404Z,3.70
2019-03-31T17:57:00.895Z,3.70
2019-03-31T17:59:30.462Z,3.70
2019-03-31T18:02:00.179Z,3.70
2019-03-31T18:04:29.768Z,3.60
2019-03-31T18:06:59.400Z,3.50
2019-03-31T18:09:29.164Z,3.50
2019-03-31T18:11:58.759Z,3.40
2019-03-31T18:14:28.244Z,3.30
2019-03-31T18:16:57.767Z,3.30
2019-03-31T18:19:27.278Z,3.20
2019-03-31T18:21:56.860Z,3.10
2019-03-31T18:24:26.407Z,3.00
2019-03-31T18:26:55.953Z,3.00
2019-03-31T18:29:25.480Z,2.90
2019-03-31T18:31:55.031Z,2.80
2019-03-31T18:34:25.776Z,2.80
2019-03-31T18:36:55.371Z,2.70
2019-03-31T18:39:24.803Z,2.70
2019-03-31T18:41:54.286Z,2.60
2019-03-31T18:44:23.836Z,2.60
2019-03-31T18:46:56.273Z,2.50
2019-03-31T18:49:25.790Z,2.50
2019-03-31T18:51:55.301Z,2.40
2019-03-31T18:54:52.688Z,2.40
2019-03-31T18:57:46.659Z,2.40
2019-03-31T19:00:33.581Z,2.30
2019-03-31T19:03:17.332Z,2.30
2019-03-31T19:06:20.945Z,2.20
2019-03-31T19:09:21.392Z,2.10
2019-03-31T19:12:08.745Z,2.10
2019-03-31T19:15:07.167Z,2.00
2019-03-31T19:17:49.655Z,2.00
2019-03-31T19:21:10.491Z,1.90
2019-03-31T19:23:43.338Z,1.90
2019-03-31T19:26:48.377Z,1.80
2019-03-31T19:29:37.238Z,1.70
2019-03-31T19:32:24.191Z,1.70
2019-03-31T19:35:12.636Z,1.70
2019-03-31T19:38:01.145Z,1.60
2019-03-31T19:41:14.115Z,1.60
2019-03-31T19:44:02.522Z,1.50
2019-03-31T19:46:50.996Z,1.50
2019-03-31T19:49:57.936Z,1.50
2019-03-31T19:52:55.454Z,1.40
2019-03-31T19:55:42.658Z,1.40
2019-03-31T19:58:31.926Z,1.30
2019-03-31T20:01:14.064Z,1.30
2019-03-31T20:04:08.152Z,1.20
2019-03-31T20:06:55.324Z,1.20
2019-03-31T20:09:32.419Z,1.20
2019-03-31T20:12:19.564Z,1.10
2019-03-31T20:15:20.061Z,1.00
2019-03-31T20:18:00.365Z,1.00
2019-03-31T20:20:57.771Z,1.00
2019-03-31T20:23:32.187Z,0.90
2019-03-31T20:26:09.595Z,0.80
2019-03-31T20:28:58.200Z,0.80
2019-03-31T20:31:46.734Z,0.80
2019-03-31T20:34:31.517Z,0.80
2019-03-31T20:37:15.017Z,0.70
2019-03-31T20:40:06.630Z,0.70
2019-03-31T20:42:49.655Z,0.70
2019-03-31T20:45:19.304Z,0.80
2019-03-31T20:47:48.772Z,0.70
2019-03-31T20:50:18.475Z,0.80
2019-03-31T20:52:47.983Z,0.80
2019-03-31T20:55:17.563Z,0.80
2019-03-31T20:57:47.119Z,0.80
2019-03-31T21:00:17.291Z,0.80
2019-03-31T21:02:46.971Z,0.80
2019-03-31T21:05:16.684Z,0.80
2019-03-31T21:07:46.439Z,0.80
2019-03-31T21:10:16.137Z,0.80
2019-03-31T21:12:45.725Z,0.80
2019-03-31T21:15:15.368Z,0.80
2019-03-31T21:17:44.934Z,0.70
2019-03-31T21:20:14.652Z,0.70
2019-03-31T21:22:44.262Z,0.60
2019-03-31T21:25:13.947Z,0.60
2019-03-31T21:27:43.504Z,0.60
2019-03-31T21:30:13.150Z,0.50
2019-03-31T21:32:42.698Z,0.50
2019-03-31T21:35:12.333Z,0.50
2019-03-31T21:37:41.822Z,0.50
2019-03-31T21:40:11.434Z,0.50
2019-03-31T21:42:40.896Z,0.50
2019-03-31T21:45:10.380Z,0.50
2019-03-31T21:47:39.839Z,0.40
2019-03-31T21:50:09.424Z,0.40
2019-03-31T21:52:38.859Z,0.30
2019-03-31T21:55:08.326Z,0.30
2019-03-31T21:57:37.835Z,0.20
2019-03-31T22:00:09.027Z,0.20
2019-03-31T22:02:38.479Z,0.10
2019-03-31T22:05:08.732Z,0.10
2019-03-31T22:07:38.190Z,0.10
2019-03-31T22:10:07.695Z,0.00
2019-03-31T22:12:40.302Z,-0.10
2019-03-31T22:15:09.813Z,-0.10
2019-03-31T22:17:39.313Z,-0.10
2019-03-31T22:20:08.928Z,-0.20
2019-03-31T22:22:38.375Z,-0.20
2019-03-31T22:25:07.834Z,-0.20
2019-03-31T22:27:37.300Z,-0.30
2019-03-31T22:30:06.940Z,-0.30
2019-03-31T22:32:36.460Z,-0.30
2019-03-31T22:35:06.457Z,-0.30
2019-03-31T22:37:35.807Z,-0.30
2019-03-31T22:40:05.520Z,-0.30
2019-03-31T22:42:35.010Z,-0.40
2019-03-31T22:45:05.099Z,-0.40
2019-03-31T22:47:34.651Z,-0.40
2019-03-31T22:50:04.867Z,-0.50
2019-03-31T22:52:34.360Z,-0.50
2019-03-31T22:55:03.892Z,-0.50
2019-03-31T22:57:33.495Z,-0.60
2019-03-31T23:00:03.058Z,-0.60
2019-03-31T23:02:32.567Z,-0.60
2019-03-31T23:05:02.080Z,-0.70
2019-03-31T23:07:31.615Z,-0.70
2019-03-31T23:10:01.086Z,-0.80
2019-03-31T23:12:30.614Z,-0.80
2019-03-31T23:15:00.158Z,-0.80
2019-03-31T23:17:29.767Z,-0.80
2019-03-31T23:19:59.291Z,-0.70
2019-03-31T23:22:28.764Z,-0.70
2019-03-31T23:24:58.198Z,-0.70
2019-03-31T23:27:27.710Z,-0.80
2019-03-31T23:29:57.177Z,-0.70
2019-03-31T23:32:26.644Z,-0.70
2019-03-31T23:34:56.158Z,-0.70
2019-03-31T23:37:25.618Z,-0.70
2019-03-31T23:39:55.058Z,-0.70
2019-03-31T23:42:24.567Z,-0.70
2019-03-31T23:44:54.022Z,-0.70
2019-03-31T23:47:23.464Z,-0.70
2019-03-31T23:49:52.958Z,-0.70
2019-03-31T23:52:22.803Z,-0.70
2019-03-31T23:54:52.258Z,-0.80
2019-03-31T23:57:39.206Z,-0.90
